Time;durP1;ratioP1;P1;durP2;ratioP2;P2;SDS_P1;SDS_P2;PMS_P1;PMS_P2;Temp;Humidity;BMP_temperature;BMP_pressure;BME280_temperature;BME280_humidity;BME280_pressure;Samples;Min_cycle;Max_cycle;Signal;HPM_P1;HPM_P2
2022/03/18 00:00:45;;;;;;;12.77;10.20;;;;;;;;;;5004973;28;20246;-57
2022/03/18 00:03:11;;;;;;;14.73;10.13;;;;;;;;;;5001702;28;20190;-57
2022/03/18 00:05:37;;;;;;;13.67;10.30;;;;;;;;;;5001347;28;20387;-57
2022/03/18 00:08:03;;;;;;;14.40;9.77;;;;;;;;;;5002061;28;20221;-57
2022/03/18 00:10:29;;;;;;;13.40;9.33;;;;;;;;;;5005771;28;20201;-57
2022/03/18 00:12:55;;;;;;;12.70;9.53;;;;;;;;;;5005432;28;20251;-57
2022/03/18 00:15:23;;;;;;;13.67;9.63;;;;;;;;;;4999934;28;20833;-57
2022/03/18 00:17:49;;;;;;;12.47;9.67;;;;;;;;;;5004338;28;20210;-57
2022/03/18 00:20:15;;;;;;;14.53;10.67;;;;;;;;;;5001902;28;20702;-57
2022/03/18 00:22:42;;;;;;;12.93;9.60;;;;;;;;;;5003933;28;20188;-57
2022/03/18 00:25:09;;;;;;;12.97;10.40;;;;;;;;;;5002613;28;20680;-57
2022/03/18 00:27:35;;;;;;;13.07;9.43;;;;;;;;;;5004544;28;20221;-57
2022/03/18 00:30:01;;;;;;;10.67;9.50;;;;;;;;;;5002954;28;20248;-57
2022/03/18 00:32:27;;;;;;;12.97;9.93;;;;;;;;;;4999757;28;20200;-59
2022/03/18 00:34:53;;;;;;;12.30;10.00;;;;;;;;;;5001560;28;20196;-57
2022/03/18 00:37:19;;;;;;;13.53;9.80;;;;;;;;;;5002332;28;20201;-57
2022/03/18 00:39:45;;;;;;;11.80;9.40;;;;;;;;;;4991423;28;20334;-57
2022/03/18 00:42:12;;;;;;;14.10;9.37;;;;;;;;;;4998429;28;20647;-57
2022/03/18 00:44:39;;;;;;;12.27;8.70;;;;;;;;;;4996770;28;20570;-57
2022/03/18 00:51:59;;;;;;;13.37;9.60;;;;;;;;;;4997448;28;20686;-57
2022/03/18 00:52:37;;;;;;;13.33;9.43;;;;;;;;;;5001535;28;20208;-56
2022/03/18 00:55:03;;;;;;;11.80;9.80;;;;;;;;;;5003032;28;20197;-57
2022/03/18 00:57:29;;;;;;;10.87;8.70;;;;;;;;;;5004298;28;20204;-57
2022/03/18 00:59:55;;;;;;;10.47;9.33;;;;;;;;;;5006820;28;20248;-57
2022/03/18 01:02:21;;;;;;;11.67;9.00;;;;;;;;;;5003132;28;20193;-57
2022/03/18 01:04:49;;;;;;;10.30;9.20;;;;;;;;;;5001227;28;20209;-57
2022/03/18 01:07:15;;;;;;;11.03;9.10;;;;;;;;;;5003402;28;20190;-57
2022/03/18 01:09:41;;;;;;;11.13;8.93;;;;;;;;;;5006632;28;20576;-57
2022/03/18 01:12:08;;;;;;;14.30;9.73;;;;;;;;;;5003227;28;20282;-57
2022/03/18 01:14:33;;;;;;;13.37;9.60;;;;;;;;;;5002982;28;20204;-57
2022/03/18 01:16:59;;;;;;;11.43;9.67;;;;;;;;;;4999878;28;20198;-57
2022/03/18 01:19:25;;;;;;;15.43;9.40;;;;;;;;;;5004190;28;20230;-58
2022/03/18 01:21:51;;;;;;;13.60;9.43;;;;;;;;;;5001486;28;20272;-57
2022/03/18 01:24:17;;;;;;;10.77;9.10;;;;;;;;;;5003146;28;20221;-57
2022/03/18 01:26:43;;;;;;;10.83;8.73;;;;;;;;;;5004182;28;20188;-57
2022/03/18 01:29:10;;;;;;;14.23;8.63;;;;;;;;;;5001841;28;20285;-57
2022/03/18 01:31:36;;;;;;;12.93;9.60;;;;;;;;;;5004435;28;20194;-57
2022/03/18 01:34:02;;;;;;;12.50;8.90;;;;;;;;;;5000785;28;20246;-57
2022/03/18 01:36:28;;;;;;;11.07;9.20;;;;;;;;;;5000719;28;20182;-57
2022/03/18 01:38:54;;;;;;;13.63;8.80;;;;;;;;;;5001647;28;20832;-58
2022/03/18 01:41:20;;;;;;;10.63;9.40;;;;;;;;;;5001962;28;22413;-57
2022/03/18 01:43:46;;;;;;;10.23;9.10;;;;;;;;;;4998157;28;20690;-57
2022/03/18 01:46:13;;;;;;;12.23;9.03;;;;;;;;;;5001869;28;20197;-57
2022/03/18 01:48:39;;;;;;;11.10;9.17;;;;;;;;;;5000343;28;20251;-57
2022/03/18 01:51:05;;;;;;;14.77;9.83;;;;;;;;;;5006566;28;20288;-58
2022/03/18 01:53:31;;;;;;;15.73;9.70;;;;;;;;;;5002937;28;20320;-57
2022/03/18 01:55:57;;;;;;;15.43;9.70;;;;;;;;;;5004579;28;20282;-57
2022/03/18 01:58:23;;;;;;;11.83;9.50;;;;;;;;;;5001988;28;20280;-57
2022/03/18 02:00:49;;;;;;;14.00;9.73;;;;;;;;;;4997552;28;20218;-57
2022/03/18 02:03:15;;;;;;;11.40;9.73;;;;;;;;;;5001523;28;20297;-58
2022/03/18 02:05:41;;;;;;;15.30;10.13;;;;;;;;;;5003313;28;20251;-57
2022/03/18 02:08:08;;;;;;;11.60;9.53;;;;;;;;;;5002042;28;20211;-57
2022/03/18 02:10:34;;;;;;;12.57;9.67;;;;;;;;;;5002979;28;20197;-57
2022/03/18 02:13:00;;;;;;;11.50;9.70;;;;;;;;;;5001727;28;20698;-57
2022/03/18 02:15:26;;;;;;;16.23;10.57;;;;;;;;;;5002179;28;20513;-57
2022/03/18 02:17:52;;;;;;;12.33;9.63;;;;;;;;;;5001567;28;20224;-57
2022/03/18 02:20:18;;;;;;;13.47;10.00;;;;;;;;;;5001634;28;20216;-57
2022/03/18 02:22:44;;;;;;;15.27;9.87;;;;;;;;;;5004474;28;20200;-57
2022/03/18 02:25:12;;;;;;;13.20;9.67;;;;;;;;;;5003779;28;20221;-57
2022/03/18 02:27:38;;;;;;;11.90;10.13;;;;;;;;;;4999585;28;20198;-56
2022/03/18 02:30:05;;;;;;;14.50;10.07;;;;;;;;;;5002523;28;20208;-57
2022/03/18 02:32:31;;;;;;;17.77;10.03;;;;;;;;;;5000228;28;20454;-57
2022/03/18 02:34:57;;;;;;;14.20;10.40;;;;;;;;;;5003468;28;20728;-57
2022/03/18 02:37:23;;;;;;;13.13;10.17;;;;;;;;;;5001006;28;20280;-57
2022/03/18 02:39:49;;;;;;;15.47;9.30;;;;;;;;;;5004003;28;20251;-57
2022/03/18 02:42:15;;;;;;;15.20;10.10;;;;;;;;;;4999987;28;20193;-57
2022/03/18 02:44:41;;;;;;;15.43;9.80;;;;;;;;;;5003091;28;20203;-57
2022/03/18 02:47:07;;;;;;;14.00;9.50;;;;;;;;;;5004838;28;20189;-57
2022/03/18 02:49:33;;;;;;;13.00;9.20;;;;;;;;;;5002401;28;20327;-57
2022/03/18 02:51:59;;;;;;;14.57;9.73;;;;;;;;;;4990877;28;20205;-57
2022/03/18 02:54:25;;;;;;;13.50;9.50;;;;;;;;;;4980026;28;20225;-57
2022/03/18 02:56:51;;;;;;;11.70;9.13;;;;;;;;;;4987944;28;20200;-57
2022/03/18 02:59:17;;;;;;;16.37;9.30;;;;;;;;;;4986912;28;20209;-57
2022/03/18 03:01:43;;;;;;;13.63;9.57;;;;;;;;;;4989279;28;20288;-57
2022/03/18 03:04:11;;;;;;;11.00;9.13;;;;;;;;;;5001916;28;20207;-57
2022/03/18 03:09:22;;;;;;;10.97;9.83;;;;;;;;;;5002850;28;20683;-57
2022/03/18 03:11:48;;;;;;;16.70;9.97;;;;;;;;;;4996128;28;20189;-57
2022/03/18 03:14:14;;;;;;;12.63;9.67;;;;;;;;;;5002050;28;20295;-57
2022/03/18 03:16:40;;;;;;;11.37;9.50;;;;;;;;;;4999317;28;20227;-57
2022/03/18 03:19:06;;;;;;;13.57;9.93;;;;;;;;;;5001631;28;20661;-57
2022/03/18 03:21:32;;;;;;;13.20;9.57;;;;;;;;;;4999526;28;20200;-57
2022/03/18 03:23:58;;;;;;;13.33;10.10;;;;;;;;;;5003805;28;20235;-57
2022/03/18 03:26:24;;;;;;;12.70;9.73;;;;;;;;;;4999860;28;20220;-57
2022/03/18 03:28:50;;;;;;;13.10;9.67;;;;;;;;;;5000664;28;20291;-57
2022/03/18 03:31:16;;;;;;;12.87;9.73;;;;;;;;;;5002061;28;20197;-57
2022/03/18 03:33:44;;;;;;;12.23;9.93;;;;;;;;;;5002571;28;20185;-57
2022/03/18 03:36:10;;;;;;;15.97;10.80;;;;;;;;;;5001643;28;20615;-57
2022/03/18 03:38:36;;;;;;;10.00;8.80;;;;;;;;;;4998891;28;20779;-57
2022/03/18 03:41:02;;;;;;;12.70;9.97;;;;;;;;;;4999711;28;20347;-57
2022/03/18 03:43:28;;;;;;;14.97;9.57;;;;;;;;;;4999758;28;20211;-57
2022/03/18 03:45:54;;;;;;;12.03;9.63;;;;;;;;;;4997216;28;20743;-57
2022/03/18 03:48:20;;;;;;;10.67;9.40;;;;;;;;;;5001155;28;20228;-57
2022/03/18 03:50:46;;;;;;;10.97;9.40;;;;;;;;;;5000125;28;20193;-57
2022/03/18 03:53:12;;;;;;;12.43;9.13;;;;;;;;;;5000084;28;20203;-57
2022/03/18 03:55:40;;;;;;;13.03;9.37;;;;;;;;;;4999831;28;20280;-57
2022/03/18 03:58:06;;;;;;;11.70;9.53;;;;;;;;;;5001895;28;22520;-57
2022/03/18 04:00:32;;;;;;;10.77;8.73;;;;;;;;;;4998001;28;20271;-57
2022/03/18 04:02:58;;;;;;;12.57;9.60;;;;;;;;;;4999328;28;20260;-57
2022/03/18 04:05:24;;;;;;;12.67;9.43;;;;;;;;;;4999832;28;20211;-57
2022/03/18 04:07:50;;;;;;;13.00;9.53;;;;;;;;;;4995236;28;20193;-57
2022/03/18 04:10:19;;;;;;;11.13;9.33;;;;;;;;;;4989284;28;20251;-57
2022/03/18 04:12:45;;;;;;;11.83;9.43;;;;;;;;;;4996149;28;20193;-57
2022/03/18 04:15:11;;;;;;;10.87;9.73;;;;;;;;;;4995957;28;20211;-57
2022/03/18 04:17:46;;;;;;;13.00;9.70;;;;;;;;;;5003834;28;20185;-57
2022/03/18 04:20:16;;;;;;;12.40;9.37;;;;;;;;;;4999705;28;20216;-57
2022/03/18 04:22:42;;;;;;;11.43;9.80;;;;;;;;;;5005882;28;20208;-57
2022/03/18 04:25:08;;;;;;;10.10;8.40;;;;;;;;;;4999599;28;20229;-57
2022/03/18 04:27:34;;;;;;;11.93;8.50;;;;;;;;;;5005184;28;20201;-57
2022/03/18 04:30:00;;;;;;;11.77;9.30;;;;;;;;;;5001785;28;20245;-57
2022/03/18 04:32:26;;;;;;;12.60;8.93;;;;;;;;;;5005228;28;20694;-57
2022/03/18 04:34:52;;;;;;;10.33;9.17;;;;;;;;;;5002958;28;20205;-57
2022/03/18 04:37:18;;;;;;;13.43;9.03;;;;;;;;;;5008965;28;20209;-57
2022/03/18 04:39:44;;;;;;;12.07;8.77;;;;;;;;;;5005035;28;20209;-57
2022/03/18 04:42:10;;;;;;;13.77;9.10;;;;;;;;;;5008902;28;20200;-57
2022/03/18 04:44:36;;;;;;;11.67;8.47;;;;;;;;;;5005040;28;20193;-57
2022/03/18 04:47:02;;;;;;;12.07;8.67;;;;;;;;;;5000873;28;20263;-57
2022/03/18 04:49:28;;;;;;;11.03;8.40;;;;;;;;;;5005910;28;20193;-57
2022/03/18 04:51:54;;;;;;;11.03;8.63;;;;;;;;;;5005964;28;20208;-57
2022/03/18 04:54:20;;;;;;;10.67;8.97;;;;;;;;;;5001399;28;20204;-57
2022/03/18 04:59:31;;;;;;;11.40;8.37;;;;;;;;;;5004796;28;20227;-57
2022/03/18 05:01:57;;;;;;;13.73;8.80;;;;;;;;;;5000420;28;20189;-57
2022/03/18 05:04:23;;;;;;;10.30;8.03;;;;;;;;;;5003504;28;20549;-57
2022/03/18 05:06:49;;;;;;;11.57;8.60;;;;;;;;;;5003169;28;20227;-57
2022/03/18 05:09:15;;;;;;;13.23;8.90;;;;;;;;;;5002372;28;20272;-57
2022/03/18 05:11:41;;;;;;;12.27;8.90;;;;;;;;;;5002026;28;20189;-57
2022/03/18 05:14:07;;;;;;;13.00;9.17;;;;;;;;;;4999727;28;20258;-56
2022/03/18 05:16:33;;;;;;;12.80;9.17;;;;;;;;;;4998578;28;20326;-56
2022/03/18 05:18:59;;;;;;;13.23;9.33;;;;;;;;;;4999344;28;20302;-57
2022/03/18 05:21:25;;;;;;;12.43;9.53;;;;;;;;;;4999648;28;20196;-57
2022/03/18 05:23:52;;;;;;;14.77;9.50;;;;;;;;;;5004781;28;20198;-57
2022/03/18 05:26:18;;;;;;;11.27;8.73;;;;;;;;;;4988813;28;20228;-57
2022/03/18 05:28:46;;;;;;;12.70;8.67;;;;;;;;;;4995983;28;20189;-57
2022/03/18 05:31:12;;;;;;;16.43;8.87;;;;;;;;;;4993802;28;20558;-57
2022/03/18 05:33:38;;;;;;;13.13;8.80;;;;;;;;;;4995178;28;20197;-57
2022/03/18 05:36:04;;;;;;;12.03;8.63;;;;;;;;;;4996115;28;20200;-57
2022/03/18 05:38:30;;;;;;;11.97;8.90;;;;;;;;;;4993600;28;20204;-57
2022/03/18 05:40:56;;;;;;;14.63;9.57;;;;;;;;;;4981504;28;20295;-57
2022/03/18 05:43:22;;;;;;;11.30;8.57;;;;;;;;;;4993424;28;20502;-57
2022/03/18 05:45:48;;;;;;;10.53;8.53;;;;;;;;;;4991009;28;20228;-57
2022/03/18 05:48:14;;;;;;;10.97;9.40;;;;;;;;;;4995913;28;20201;-57
2022/03/18 05:50:40;;;;;;;12.73;8.57;;;;;;;;;;5001046;28;20200;-57
2022/03/18 05:53:06;;;;;;;10.73;8.33;;;;;;;;;;4994755;28;20204;-57
2022/03/18 05:58:17;;;;;;;11.50;9.40;;;;;;;;;;5002143;28;20678;-57
2022/03/18 06:00:43;;;;;;;11.93;8.80;;;;;;;;;;5002768;28;20304;-57
2022/03/18 06:03:09;;;;;;;10.40;8.80;;;;;;;;;;5002653;28;20276;-57
2022/03/18 06:05:35;;;;;;;11.10;9.20;;;;;;;;;;4992118;28;20270;-57
2022/03/18 06:11:48;;;;;;;13.67;10.07;;;;;;;;;;5003300;28;20189;-57
2022/03/18 06:13:32;;;;;;;14.03;10.50;;;;;;;;;;4992650;28;20319;-57
2022/03/18 06:15:58;;;;;;;12.50;10.13;;;;;;;;;;4995370;28;20932;-57
2022/03/18 06:18:24;;;;;;;14.07;9.87;;;;;;;;;;5000292;28;20193;-57
2022/03/18 06:20:50;;;;;;;12.13;9.67;;;;;;;;;;4995300;28;20284;-56
2022/03/18 06:23:16;;;;;;;13.97;8.83;;;;;;;;;;4999265;28;20269;-57
2022/03/18 06:25:43;;;;;;;10.07;8.87;;;;;;;;;;4996777;28;20233;-56
2022/03/18 06:28:09;;;;;;;15.00;9.60;;;;;;;;;;4991100;28;20188;-57
2022/03/18 06:30:35;;;;;;;13.70;9.77;;;;;;;;;;4993326;28;20284;-57
2022/03/18 06:33:01;;;;;;;13.60;9.57;;;;;;;;;;4998946;28;20712;-57
2022/03/18 06:35:26;;;;;;;9.77;8.73;;;;;;;;;;5002493;28;20196;-57
2022/03/18 06:37:54;;;;;;;16.93;9.40;;;;;;;;;;5000563;28;20495;-57
2022/03/18 06:40:20;;;;;;;13.80;9.40;;;;;;;;;;4995684;28;21273;-57
2022/03/18 06:42:46;;;;;;;14.00;9.83;;;;;;;;;;4991789;28;20215;-57
2022/03/18 06:45:12;;;;;;;15.03;8.93;;;;;;;;;;4983921;28;20572;-56
2022/03/18 06:47:38;;;;;;;13.57;9.47;;;;;;;;;;4986623;28;20194;-57
2022/03/18 06:50:04;;;;;;;10.97;9.20;;;;;;;;;;5008762;28;20236;-57
2022/03/18 06:52:30;;;;;;;13.67;9.43;;;;;;;;;;5003191;28;20904;-57
2022/03/18 06:54:56;;;;;;;12.93;9.30;;;;;;;;;;5003352;28;20204;-57
2022/03/18 06:57:21;;;;;;;12.17;9.53;;;;;;;;;;4998687;28;20200;-57
2022/03/18 06:59:47;;;;;;;16.27;9.37;;;;;;;;;;5004393;28;20209;-57
2022/03/18 07:02:16;;;;;;;12.60;8.73;;;;;;;;;;5010718;28;20182;-57
2022/03/18 07:04:42;;;;;;;12.90;9.47;;;;;;;;;;5002760;28;20205;-57
2022/03/18 07:07:08;;;;;;;14.03;9.33;;;;;;;;;;5002883;28;20250;-57
2022/03/18 07:09:36;;;;;;;13.90;8.53;;;;;;;;;;5005980;28;20205;-57
2022/03/18 07:12:02;;;;;;;9.80;8.80;;;;;;;;;;4996637;28;20849;-57
2022/03/18 07:14:28;;;;;;;12.57;9.30;;;;;;;;;;4993714;28;20197;-57
2022/03/18 07:19:39;;;;;;;11.20;9.00;;;;;;;;;;4991136;28;21959;-57
2022/03/18 07:22:05;;;;;;;13.50;8.80;;;;;;;;;;4991713;28;20207;-58
2022/03/18 07:24:31;;;;;;;12.73;9.00;;;;;;;;;;4986784;28;20228;-57
2022/03/18 07:26:57;;;;;;;13.20;8.90;;;;;;;;;;4987877;28;20200;-57
2022/03/18 07:29:23;;;;;;;10.10;8.10;;;;;;;;;;4997982;28;20303;-57
2022/03/18 07:31:51;;;;;;;10.47;8.20;;;;;;;;;;4985416;28;20230;-57
2022/03/18 07:34:17;;;;;;;13.10;8.67;;;;;;;;;;4977568;28;20193;-57
2022/03/18 07:36:43;;;;;;;11.77;9.13;;;;;;;;;;4988570;28;20192;-58
2022/03/18 07:39:09;;;;;;;9.63;8.10;;;;;;;;;;4991151;28;20224;-57
2022/03/18 07:41:35;;;;;;;10.57;7.90;;;;;;;;;;4988528;28;20246;-57
2022/03/18 07:44:02;;;;;;;9.97;7.70;;;;;;;;;;4996397;28;20228;-58
2022/03/18 07:46:28;;;;;;;10.93;7.83;;;;;;;;;;4988473;28;20193;-58
2022/03/18 07:48:53;;;;;;;14.60;8.30;;;;;;;;;;4996642;28;20193;-57
2022/03/18 07:51:19;;;;;;;10.50;7.53;;;;;;;;;;4983135;28;20189;-57
2022/03/18 07:53:45;;;;;;;13.17;8.37;;;;;;;;;;4991585;28;20189;-57
2022/03/18 07:56:11;;;;;;;13.57;8.23;;;;;;;;;;4989392;28;20267;-58
2022/03/18 07:58:38;;;;;;;9.30;8.17;;;;;;;;;;4990413;28;20263;-58
2022/03/18 08:01:05;;;;;;;11.37;7.73;;;;;;;;;;4999904;28;20610;-58
2022/03/18 08:03:31;;;;;;;10.57;7.53;;;;;;;;;;4993576;28;20780;-57
2022/03/18 08:05:57;;;;;;;12.77;7.27;;;;;;;;;;4991747;28;20217;-57
2022/03/18 08:08:23;;;;;;;10.70;7.07;;;;;;;;;;4992109;28;20287;-58
2022/03/18 08:10:49;;;;;;;10.87;7.10;;;;;;;;;;4995503;28;20196;-57
2022/03/18 08:13:16;;;;;;;10.53;6.67;;;;;;;;;;4994929;28;20189;-58
2022/03/18 08:15:44;;;;;;;7.73;6.93;;;;;;;;;;4994967;28;20207;-58
2022/03/18 08:18:10;;;;;;;11.80;7.20;;;;;;;;;;4993005;28;20211;-57
2022/03/18 08:20:40;;;;;;;10.23;7.40;;;;;;;;;;4999347;28;20678;-57
2022/03/18 08:23:06;;;;;;;11.50;6.73;;;;;;;;;;4988839;28;20187;-57
2022/03/18 08:25:32;;;;;;;10.13;6.80;;;;;;;;;;4990425;28;20682;-58
2022/03/18 08:27:58;;;;;;;10.97;6.70;;;;;;;;;;4990320;28;20186;-57
2022/03/18 08:30:24;;;;;;;10.83;6.73;;;;;;;;;;4992747;28;20190;-57
2022/03/18 08:32:50;;;;;;;9.37;6.43;;;;;;;;;;4987986;28;20193;-57
2022/03/18 08:35:16;;;;;;;9.10;6.10;;;;;;;;;;4993089;28;20282;-58
2022/03/18 08:37:58;;;;;;;10.40;6.33;;;;;;;;;;4994713;28;20200;-57
2022/03/18 08:40:33;;;;;;;9.83;5.57;;;;;;;;;;4989435;28;20784;-58
2022/03/18 08:42:59;;;;;;;8.27;5.57;;;;;;;;;;5001830;28;20228;-57
2022/03/18 08:45:25;;;;;;;10.63;6.60;;;;;;;;;;4995834;28;20197;-58
2022/03/18 08:47:51;;;;;;;7.03;5.67;;;;;;;;;;4997723;28;21861;-57
2022/03/18 08:50:17;;;;;;;7.00;5.33;;;;;;;;;;5008259;28;20197;-58
2022/03/18 08:52:45;;;;;;;10.03;6.00;;;;;;;;;;5011652;28;20615;-57
2022/03/18 08:55:11;;;;;;;11.33;5.10;;;;;;;;;;5005782;28;20193;-58
2022/03/18 08:57:37;;;;;;;10.03;5.30;;;;;;;;;;5009557;28;22145;-58
2022/03/18 09:00:07;;;;;;;7.97;5.13;;;;;;;;;;5005052;28;20692;-58
2022/03/18 09:02:33;;;;;;;7.63;5.20;;;;;;;;;;5002508;28;20268;-56
2022/03/18 09:04:59;;;;;;;7.10;4.80;;;;;;;;;;4994998;28;20216;-56
2022/03/18 09:07:26;;;;;;;10.30;5.27;;;;;;;;;;5005758;28;20224;-57
2022/03/18 09:09:52;;;;;;;9.63;4.90;;;;;;;;;;4998938;28;20216;-57
2022/03/18 09:12:18;;;;;;;6.93;4.70;;;;;;;;;;4992419;28;20224;-57
2022/03/18 09:14:44;;;;;;;9.30;4.57;;;;;;;;;;4981525;28;20197;-57
2022/03/18 09:17:10;;;;;;;9.83;5.27;;;;;;;;;;4994507;28;20198;-58
2022/03/18 09:19:37;;;;;;;8.33;4.57;;;;;;;;;;4991518;28;20764;-58
2022/03/18 09:22:16;;;;;;;7.63;4.30;;;;;;;;;;4996606;28;20181;-58
2022/03/18 09:24:42;;;;;;;7.63;4.20;;;;;;;;;;4988831;28;20248;-58
2022/03/18 09:27:09;;;;;;;9.87;4.60;;;;;;;;;;4992122;28;20185;-58
2022/03/18 09:29:35;;;;;;;6.17;4.13;;;;;;;;;;4988138;28;20232;-58
2022/03/18 09:32:01;;;;;;;8.43;3.73;;;;;;;;;;4982499;28;20235;-57
2022/03/18 09:34:27;;;;;;;6.07;4.40;;;;;;;;;;4988656;28;20816;-57
2022/03/18 09:36:54;;;;;;;5.77;4.00;;;;;;;;;;4991569;28;20676;-57
2022/03/18 09:39:20;;;;;;;6.57;3.70;;;;;;;;;;4988815;28;20228;-57
2022/03/18 09:41:46;;;;;;;6.50;4.03;;;;;;;;;;4991220;28;20283;-58
2022/03/18 09:44:12;;;;;;;4.97;3.40;;;;;;;;;;4993125;28;20192;-58
2022/03/18 09:46:38;;;;;;;7.23;3.70;;;;;;;;;;4989102;28;20192;-58
2022/03/18 09:49:11;;;;;;;7.75;3.63;;;;;;;;;;4987161;28;20193;-58
2022/03/18 09:51:37;;;;;;;5.87;3.60;;;;;;;;;;5002802;28;20211;-57
2022/03/18 09:54:06;;;;;;;5.32;3.55;;;;;;;;;;4994249;28;20205;-57
2022/03/18 09:56:32;;;;;;;8.02;3.90;;;;;;;;;;4990828;28;20801;-58
2022/03/18 09:58:57;;;;;;;5.80;3.75;;;;;;;;;;4984524;28;20197;-58
2022/03/18 10:01:23;;;;;;;5.93;3.70;;;;;;;;;;4992566;28;20247;-58
2022/03/18 10:03:50;;;;;;;5.57;3.80;;;;;;;;;;4992365;28;20231;-58
2022/03/18 10:06:16;;;;;;;6.82;3.42;;;;;;;;;;4989552;28;20209;-57
2022/03/18 10:08:42;;;;;;;6.47;3.80;;;;;;;;;;4990454;28;20272;-58
2022/03/18 10:11:18;;;;;;;7.82;3.85;;;;;;;;;;5000607;28;20197;-58
2022/03/18 10:13:51;;;;;;;5.95;3.42;;;;;;;;;;4999841;28;20208;-57
2022/03/18 10:16:22;;;;;;;4.50;3.13;;;;;;;;;;4997546;28;20251;-57
2022/03/18 10:18:49;;;;;;;5.45;3.03;;;;;;;;;;5003025;28;20184;-58
2022/03/18 10:21:15;;;;;;;5.32;2.80;;;;;;;;;;4994782;28;20224;-57
2022/03/18 10:23:41;;;;;;;6.97;3.30;;;;;;;;;;4991592;28;20658;-58
2022/03/18 10:26:07;;;;;;;6.60;3.10;;;;;;;;;;4994367;28;20221;-57
2022/03/18 10:28:36;;;;;;;4.18;3.05;;;;;;;;;;4994381;28;20196;-58
2022/03/18 10:31:11;;;;;;;6.68;3.60;;;;;;;;;;4992393;28;20787;-58
2022/03/18 10:37:04;;;;;;;4.95;3.03;;;;;;;;;;4998462;28;20192;-58
2022/03/18 10:39:22;;;;;;;6.20;3.00;;;;;;;;;;4991897;28;20251;-58
2022/03/18 10:41:48;;;;;;;3.50;2.53;;;;;;;;;;4997586;28;20182;-58
2022/03/18 10:44:17;;;;;;;6.22;2.50;;;;;;;;;;4992983;28;20202;-58
2022/03/18 10:46:43;;;;;;;3.85;2.50;;;;;;;;;;5000332;28;20319;-58
2022/03/18 10:49:10;;;;;;;4.32;2.40;;;;;;;;;;5004169;28;20181;-58
2022/03/18 10:51:36;;;;;;;3.35;2.30;;;;;;;;;;5009968;28;20276;-58
2022/03/18 10:54:02;;;;;;;4.78;2.35;;;;;;;;;;5011482;28;20196;-58
2022/03/18 10:56:28;;;;;;;4.20;2.45;;;;;;;;;;5010321;28;20601;-58
2022/03/18 10:58:54;;;;;;;2.60;2.20;;;;;;;;;;5011228;28;20216;-57
2022/03/18 11:01:20;;;;;;;4.05;2.20;;;;;;;;;;5008745;28;20219;-58
2022/03/18 11:03:46;;;;;;;3.78;2.20;;;;;;;;;;5008779;28;20196;-58
2022/03/18 11:06:12;;;;;;;4.70;2.15;;;;;;;;;;5010823;28;20226;-57
2022/03/18 11:08:40;;;;;;;3.88;2.25;;;;;;;;;;5010965;28;20264;-58
2022/03/18 11:11:17;;;;;;;3.50;2.00;;;;;;;;;;5004259;28;22017;-57
2022/03/18 11:14:01;;;;;;;2.85;2.35;;;;;;;;;;5005149;28;20191;-58
2022/03/18 11:16:29;;;;;;;3.65;2.15;;;;;;;;;;4997516;28;20209;-58
2022/03/18 11:18:56;;;;;;;2.90;1.83;;;;;;;;;;4992766;28;20915;-58
2022/03/18 11:21:25;;;;;;;3.47;1.95;;;;;;;;;;4998122;28;20205;-58
2022/03/18 11:23:51;;;;;;;3.65;2.03;;;;;;;;;;4993847;28;20257;-57
2022/03/18 11:26:17;;;;;;;3.38;2.10;;;;;;;;;;4994851;28;20260;-58
2022/03/18 11:28:43;;;;;;;2.97;2.00;;;;;;;;;;4993855;28;20186;-57
2022/03/18 11:31:10;;;;;;;4.00;2.20;;;;;;;;;;4993827;28;20288;-57
2022/03/18 11:33:37;;;;;;;4.10;2.17;;;;;;;;;;4977412;28;20545;-58
2022/03/18 11:36:03;;;;;;;3.65;2.60;;;;;;;;;;4997377;28;20709;-58
2022/03/18 11:38:47;;;;;;;5.28;2.70;;;;;;;;;;4986309;28;20509;-58
2022/03/18 11:41:14;;;;;;;4.68;2.53;;;;;;;;;;4993895;28;20216;-58
2022/03/18 11:43:40;;;;;;;4.72;2.83;;;;;;;;;;5002965;28;20665;-58
2022/03/18 11:48:46;;;;;;;5.53;3.00;;;;;;;;;;4991508;28;20303;-59
2022/03/18 11:51:29;;;;;;;3.92;2.30;;;;;;;;;;5005096;28;20203;-59
2022/03/18 11:53:55;;;;;;;2.55;2.20;;;;;;;;;;4988951;28;20203;-57
2022/03/18 11:56:22;;;;;;;9.25;2.60;;;;;;;;;;4997377;28;20200;-57
2022/03/18 11:58:48;;;;;;;2.35;2.10;;;;;;;;;;4999086;28;20184;-57
2022/03/18 12:01:33;;;;;;;4.47;2.05;;;;;;;;;;4989265;28;20595;-56
2022/03/18 12:03:59;;;;;;;2.78;2.05;;;;;;;;;;5001455;28;20271;-56
2022/03/18 12:06:25;;;;;;;2.67;1.85;;;;;;;;;;5005973;28;20194;-57
2022/03/18 12:08:51;;;;;;;8.38;2.67;;;;;;;;;;5014070;28;20191;-57
2022/03/18 12:11:27;;;;;;;3.35;1.90;;;;;;;;;;5009400;28;20192;-57
2022/03/18 12:13:53;;;;;;;6.30;2.28;;;;;;;;;;4986114;28;20855;-57
2022/03/18 12:16:19;;;;;;;3.45;2.05;;;;;;;;;;4988322;28;20642;-57
2022/03/18 12:18:46;;;;;;;2.55;2.00;;;;;;;;;;4996379;28;20193;-57
2022/03/18 12:21:12;;;;;;;3.60;2.00;;;;;;;;;;4985653;28;20232;-57
2022/03/18 12:23:38;;;;;;;3.25;1.75;;;;;;;;;;4984891;28;20193;-57
2022/03/18 12:26:07;;;;;;;2.25;2.05;;;;;;;;;;4990440;28;20225;-57
2022/03/18 12:28:46;;;;;;;2.15;1.77;;;;;;;;;;4985648;28;20186;-57
2022/03/18 12:31:19;;;;;;;5.63;1.98;;;;;;;;;;5001434;28;20791;-57
2022/03/18 12:33:44;;;;;;;3.42;1.98;;;;;;;;;;5001404;28;20693;-57
2022/03/18 12:36:13;;;;;;;5.03;2.15;;;;;;;;;;5000709;28;20186;-57
2022/03/18 12:38:45;;;;;;;2.25;2.00;;;;;;;;;;5004827;28;20196;-57
2022/03/18 12:41:12;;;;;;;4.13;1.95;;;;;;;;;;5002142;28;20235;-57
2022/03/18 12:43:37;;;;;;;4.93;2.05;;;;;;;;;;5001157;28;20192;-57
2022/03/18 12:46:04;;;;;;;4.20;1.95;;;;;;;;;;5004664;28;20216;-57
2022/03/18 12:48:30;;;;;;;3.65;1.88;;;;;;;;;;5002414;28;20549;-57
2022/03/18 12:50:57;;;;;;;3.22;2.05;;;;;;;;;;5007382;28;20189;-58
2022/03/18 12:53:35;;;;;;;2.97;1.90;;;;;;;;;;5008731;28;20284;-57
2022/03/18 12:56:03;;;;;;;4.63;1.70;;;;;;;;;;5004375;28;20193;-57
2022/03/18 12:58:31;;;;;;;2.58;1.90;;;;;;;;;;5006782;28;20189;-57
2022/03/18 13:00:59;;;;;;;2.10;1.70;;;;;;;;;;5002974;28;20576;-58
2022/03/18 13:03:27;;;;;;;4.00;1.90;;;;;;;;;;5015513;28;20196;-57
2022/03/18 13:05:54;;;;;;;1.85;1.52;;;;;;;;;;5000015;28;20208;-57
2022/03/18 13:08:20;;;;;;;2.20;1.83;;;;;;;;;;5003152;28;20197;-57
2022/03/18 13:10:53;;;;;;;1.80;1.50;;;;;;;;;;5004539;28;21002;-57
2022/03/18 13:13:20;;;;;;;3.22;1.70;;;;;;;;;;5007271;28;20194;-57
2022/03/18 13:15:51;;;;;;;2.95;1.80;;;;;;;;;;4998801;28;20208;-57
2022/03/18 13:18:17;;;;;;;2.75;1.60;;;;;;;;;;4998937;28;20224;-57
2022/03/18 13:20:47;;;;;;;2.13;1.73;;;;;;;;;;5006622;28;20301;-57
2022/03/18 13:23:13;;;;;;;4.05;1.60;;;;;;;;;;4999484;28;20548;-57
2022/03/18 13:25:40;;;;;;;3.83;1.40;;;;;;;;;;5000259;28;20221;-57
2022/03/18 13:28:07;;;;;;;1.95;1.65;;;;;;;;;;5001772;28;20192;-57
2022/03/18 13:33:18;;;;;;;2.42;1.45;;;;;;;;;;5004671;28;20741;-57
2022/03/18 13:35:57;;;;;;;3.63;1.63;;;;;;;;;;4999756;28;20188;-58
2022/03/18 13:38:24;;;;;;;2.83;1.50;;;;;;;;;;4994854;28;20196;-57
2022/03/18 13:40:57;;;;;;;3.92;1.50;;;;;;;;;;4981129;28;20303;-57
2022/03/18 13:43:33;;;;;;;5.60;1.60;;;;;;;;;;4988114;28;20259;-57
2022/03/18 13:46:09;;;;;;;4.68;1.63;;;;;;;;;;4987369;28;20643;-57
2022/03/18 13:48:35;;;;;;;3.95;1.70;;;;;;;;;;4993493;28;21112;-57
2022/03/18 13:51:01;;;;;;;4.43;1.63;;;;;;;;;;4985766;28;20200;-57
2022/03/18 13:53:27;;;;;;;5.40;1.85;;;;;;;;;;4991696;28;20225;-57
2022/03/18 13:55:53;;;;;;;3.40;1.73;;;;;;;;;;4990112;28;20206;-57
2022/03/18 13:58:32;;;;;;;7.38;1.70;;;;;;;;;;4995470;28;20675;-57
2022/03/18 14:01:08;;;;;;;3.28;1.70;;;;;;;;;;4988960;28;20685;-57
2022/03/18 14:03:34;;;;;;;5.18;1.80;;;;;;;;;;4995123;28;20189;-57
2022/03/18 14:06:01;;;;;;;4.68;1.80;;;;;;;;;;4992676;28;20208;-57
2022/03/18 14:08:30;;;;;;;4.75;1.50;;;;;;;;;;4994103;28;20826;-57
2022/03/18 14:11:00;;;;;;;2.58;1.60;;;;;;;;;;4993405;28;20212;-57
2022/03/18 14:13:30;;;;;;;7.35;1.73;;;;;;;;;;4991086;28;20685;-57
2022/03/18 14:15:56;;;;;;;3.92;1.80;;;;;;;;;;4985237;28;20554;-57
2022/03/18 14:18:22;;;;;;;1.77;1.60;;;;;;;;;;4989396;28;20193;-57
2022/03/18 14:20:48;;;;;;;4.13;1.60;;;;;;;;;;4987155;28;21583;-57
2022/03/18 14:23:18;;;;;;;2.83;1.83;;;;;;;;;;4979973;28;20602;-58
2022/03/18 14:25:45;;;;;;;3.38;1.80;;;;;;;;;;4995177;28;20617;-57
2022/03/18 14:28:16;;;;;;;7.30;2.17;;;;;;;;;;4994903;28;20189;-57
2022/03/18 14:30:42;;;;;;;1.73;1.63;;;;;;;;;;4988393;28;20181;-57
2022/03/18 14:33:08;;;;;;;2.88;1.98;;;;;;;;;;4992177;28;20185;-57
2022/03/18 14:35:34;;;;;;;2.47;1.90;;;;;;;;;;4994467;28;20197;-57
2022/03/18 14:38:00;;;;;;;4.78;1.60;;;;;;;;;;4998606;28;20185;-58
2022/03/18 14:40:26;;;;;;;6.22;1.88;;;;;;;;;;4990000;28;20340;-59
2022/03/18 14:42:52;;;;;;;1.90;1.58;;;;;;;;;;4991299;28;20851;-59
2022/03/18 14:45:18;;;;;;;2.55;1.60;;;;;;;;;;4996941;28;20219;-60
2022/03/18 14:47:44;;;;;;;5.05;1.60;;;;;;;;;;5000551;28;20780;-59
2022/03/18 14:50:11;;;;;;;2.70;1.83;;;;;;;;;;4996492;28;20717;-60
2022/03/18 14:52:37;;;;;;;7.20;1.90;;;;;;;;;;4999408;28;20184;-59
2022/03/18 14:57:48;;;;;;;2.37;1.80;;;;;;;;;;4997237;28;20571;-59
2022/03/18 15:00:14;;;;;;;3.13;2.03;;;;;;;;;;4998027;28;20212;-59
2022/03/18 15:02:40;;;;;;;4.00;1.90;;;;;;;;;;4995242;28;20658;-59